createdAt,value
2022-11-06T00:00:39.306Z,90.28
2022-11-06T00:01:39.390Z,90.08
2022-11-06T00:02:39.367Z,90.08
2022-11-06T00:03:39.277Z,90.08
2022-11-06T00:04:39.294Z,89.97
2022-11-06T00:05:39.264Z,89.97
2022-11-06T00:06:39.270Z,89.97
2022-11-06T00:07:39.229Z,89.97
2022-11-06T00:08:39.234Z,89.97
2022-11-06T00:09:39.212Z,90.28
2022-11-06T00:10:39.204Z,90.28
2022-11-06T00:11:39.185Z,90.38
2022-11-06T00:12:39.177Z,90.59
2022-11-06T00:13:39.153Z,90.69
2022-11-06T00:14:39.202Z,90.59
2022-11-06T00:15:39.128Z,90.69
2022-11-06T00:16:39.116Z,90.69
2022-11-06T00:17:39.117Z,90.69
2022-11-06T00:18:39.102Z,90.80
2022-11-06T00:19:39.100Z,90.89
2022-11-06T00:20:39.084Z,90.80
2022-11-06T00:21:39.057Z,90.89
2022-11-06T00:22:39.072Z,90.89
2022-11-06T00:23:39.077Z,90.89
2022-11-06T00:24:39.059Z,91.10
2022-11-06T00:25:39.018Z,91.31
2022-11-06T00:26:39.021Z,91.41
2022-11-06T00:27:39.003Z,91.51
2022-11-06T00:28:39.001Z,91.61
2022-11-06T00:29:38.982Z,91.72
2022-11-06T00:30:38.976Z,91.82
2022-11-06T00:31:38.960Z,91.82
2022-11-06T00:32:38.959Z,91.82
2022-11-06T00:33:38.954Z,91.93
2022-11-06T00:34:38.985Z,91.86
2022-11-06T00:35:38.905Z,91.97
2022-11-06T00:36:38.915Z,92.07
2022-11-06T00:37:38.922Z,91.97
2022-11-06T00:38:38.927Z,91.55
2022-11-06T00:39:38.854Z,91.72
2022-11-06T00:40:38.885Z,91.66
2022-11-06T00:41:38.838Z,91.82
2022-11-06T00:42:38.837Z,92.03
2022-11-06T00:43:38.805Z,91.31
2022-11-06T00:44:38.837Z,91.41
2022-11-06T00:45:38.806Z,91.41
2022-11-06T00:46:38.798Z,91.31
2022-11-06T00:47:38.785Z,91.31
2022-11-06T00:48:38.769Z,91.20
2022-11-06T00:49:38.758Z,91.10
2022-11-06T00:50:38.793Z,91.20
2022-11-06T00:51:38.726Z,91.20
2022-11-06T00:52:38.719Z,91.41
2022-11-06T00:53:38.705Z,91.41
2022-11-06T00:54:38.742Z,91.31
2022-11-06T00:55:38.685Z,91.35
2022-11-06T00:56:38.693Z,91.51
2022-11-06T00:57:38.660Z,91.61
2022-11-06T00:58:38.657Z,91.72
2022-11-06T00:59:38.643Z,91.45
2022-11-06T01:00:38.653Z,91.35
2022-11-06T01:01:38.793Z,91.66
2022-11-06T01:02:38.771Z,91.66
2022-11-06T01:03:38.595Z,91.97
2022-11-06T01:04:38.587Z,91.97
2022-11-06T01:05:38.565Z,92.17
2022-11-06T01:06:38.631Z,91.86
2022-11-06T01:07:38.547Z,91.97
2022-11-06T01:08:38.550Z,91.86
2022-11-06T01:09:38.559Z,91.86
2022-11-06T01:10:38.535Z,91.86
2022-11-06T01:12:06.975Z,92.27
2022-11-06T01:12:39.512Z,92.27
2022-11-06T01:13:38.478Z,92.38
2022-11-06T01:14:38.486Z,92.17
2022-11-06T01:15:38.465Z,91.86
2022-11-06T01:16:38.450Z,92.07
2022-11-06T01:17:38.440Z,92.07
2022-11-06T01:18:38.450Z,92.07
2022-11-06T01:19:38.401Z,92.27
2022-11-06T01:20:38.422Z,92.07
2022-11-06T01:21:38.387Z,92.07
2022-11-06T01:22:38.410Z,91.86
2022-11-06T01:23:38.367Z,91.66
2022-11-06T01:24:38.398Z,91.45
2022-11-06T01:25:38.346Z,91.31
2022-11-06T01:26:42.727Z,91.51
2022-11-06T01:27:39.373Z,91.51
2022-11-06T01:28:38.310Z,91.10
2022-11-06T01:29:38.291Z,91.10
2022-11-06T01:30:38.311Z,91.10
2022-11-06T01:31:38.266Z,91.10
2022-11-06T01:32:38.410Z,91.00
2022-11-06T01:33:38.251Z,90.80
2022-11-06T01:34:38.258Z,90.69
2022-11-06T01:35:38.231Z,90.80
2022-11-06T01:36:38.219Z,90.89
2022-11-06T01:37:38.238Z,90.80
2022-11-06T01:38:38.230Z,90.69
2022-11-06T01:39:38.178Z,90.89
2022-11-06T01:40:38.186Z,90.89
2022-11-06T01:41:38.158Z,90.80
2022-11-06T01:42:38.189Z,90.80
2022-11-06T01:43:38.138Z,90.59
2022-11-06T01:44:38.130Z,90.69
2022-11-06T01:45:38.111Z,90.69
2022-11-06T01:46:38.118Z,90.69
2022-11-06T01:47:38.098Z,91.10
2022-11-06T01:48:38.090Z,91.20
2022-11-06T01:49:38.078Z,91.00
2022-11-06T01:50:38.071Z,91.00
2022-11-06T01:51:38.059Z,91.00
2022-11-06T01:52:38.062Z,91.00
2022-11-06T01:53:38.043Z,91.20
2022-11-06T01:54:38.051Z,91.20
2022-11-06T01:55:37.990Z,91.20
2022-11-06T01:56:38.018Z,91.51
2022-11-06T01:57:37.978Z,91.51
2022-11-06T01:58:37.983Z,91.76
2022-11-06T01:59:37.951Z,91.66
2022-11-06T02:00:37.959Z,91.76
2022-11-06T02:01:38.051Z,91.86
2022-11-06T02:02:38.087Z,91.86
2022-11-06T02:03:37.912Z,91.86
2022-11-06T02:04:37.924Z,91.86
2022-11-06T02:05:37.909Z,91.97
2022-11-06T02:06:37.879Z,91.97
2022-11-06T02:07:37.871Z,91.97
2022-11-06T02:08:37.863Z,92.07
2022-11-06T02:09:37.850Z,91.97
2022-11-06T02:10:37.843Z,91.97
2022-11-06T02:11:37.851Z,92.07
2022-11-06T02:12:37.824Z,92.07
2022-11-06T02:13:37.838Z,92.07
2022-11-06T02:14:37.791Z,91.86
2022-11-06T02:15:37.811Z,91.97
2022-11-06T02:16:37.779Z,91.97
2022-11-06T02:17:37.751Z,92.17
2022-11-06T02:18:37.758Z,91.97
2022-11-06T02:19:37.730Z,91.86
2022-11-06T02:20:37.870Z,92.07
2022-11-06T02:21:37.808Z,91.86
2022-11-06T02:22:37.698Z,91.86
2022-11-06T02:23:37.678Z,91.97
2022-11-06T02:24:37.705Z,91.86
2022-11-06T02:25:37.682Z,91.86
2022-11-06T02:26:37.651Z,91.76
2022-11-06T02:27:37.645Z,91.97
2022-11-06T02:28:37.631Z,91.97
2022-11-06T02:29:37.619Z,91.86
2022-11-06T02:30:37.619Z,91.76
2022-11-06T02:31:37.611Z,91.97
2022-11-06T02:32:37.590Z,92.07
2022-11-06T02:33:37.567Z,91.97
2022-11-06T02:34:37.571Z,92.07
2022-11-06T02:35:37.559Z,92.07
2022-11-06T02:36:37.552Z,91.86
2022-11-06T02:37:37.531Z,91.97
2022-11-06T02:38:37.553Z,91.97
2022-11-06T02:39:37.504Z,92.17
2022-11-06T02:40:37.502Z,92.17
2022-11-06T02:41:37.503Z,92.17
2022-11-06T02:42:37.473Z,92.17
2022-11-06T02:43:37.454Z,92.32
2022-11-06T02:44:37.495Z,92.42
2022-11-06T02:45:37.430Z,92.32
2022-11-06T02:46:37.431Z,92.52
2022-11-06T02:47:37.439Z,92.63
2022-11-06T02:48:37.422Z,92.73
2022-11-06T02:49:37.392Z,92.83
2022-11-06T02:50:37.415Z,93.04
2022-11-06T02:51:37.371Z,93.04
2022-11-06T02:52:37.364Z,92.83
2022-11-06T02:53:37.342Z,92.93
2022-11-06T02:54:37.348Z,93.04
2022-11-06T02:55:37.323Z,93.14
2022-11-06T02:56:37.339Z,93.14
2022-11-06T02:57:37.304Z,93.24
2022-11-06T02:58:39.117Z,93.24
2022-11-06T02:59:37.295Z,93.14
2022-11-06T03:00:37.271Z,93.24
2022-11-06T03:01:37.348Z,93.24
2022-11-06T03:02:37.481Z,93.24
2022-11-06T03:03:37.423Z,93.39
2022-11-06T03:04:37.275Z,93.39
2022-11-06T03:05:37.202Z,93.59
2022-11-06T03:06:37.311Z,93.49
2022-11-06T03:07:37.183Z,93.59
2022-11-06T03:08:37.186Z,93.70
2022-11-06T03:09:37.163Z,93.90
2022-11-06T03:10:37.163Z,93.80
2022-11-06T03:11:37.151Z,94.01
2022-11-06T03:12:37.139Z,94.01
2022-11-06T03:13:37.133Z,94.01
2022-11-06T03:14:37.114Z,93.90
2022-11-06T03:15:37.112Z,94.01
2022-11-06T03:16:37.106Z,94.01
2022-11-06T03:17:37.084Z,94.01
2022-11-06T03:18:37.084Z,94.11
2022-11-06T03:19:37.053Z,94.01
2022-11-06T03:20:37.061Z,93.90
2022-11-06T03:21:37.047Z,94.01
2022-11-06T03:22:37.031Z,94.05
2022-11-06T03:23:37.032Z,94.15
2022-11-06T03:24:36.995Z,94.15
2022-11-06T03:25:37.003Z,94.05
2022-11-06T03:26:36.977Z,94.15
2022-11-06T03:27:36.977Z,94.15
2022-11-06T03:28:36.975Z,94.26
2022-11-06T03:29:36.945Z,94.46
2022-11-06T03:30:36.946Z,94.36
2022-11-06T03:31:36.924Z,94.56
2022-11-06T03:32:36.943Z,94.77
2022-11-06T03:33:36.899Z,94.77
2022-11-06T03:34:36.916Z,94.77
2022-11-06T03:35:36.883Z,94.77
2022-11-06T03:36:36.852Z,94.77
2022-11-06T03:37:36.863Z,94.87
2022-11-06T03:38:41.845Z,94.77
2022-11-06T03:39:37.843Z,94.77
2022-11-06T03:40:36.816Z,94.98
2022-11-06T03:41:36.833Z,95.02
2022-11-06T03:42:36.833Z,95.18
2022-11-06T03:43:37.171Z,95.18
2022-11-06T03:44:36.941Z,95.02
2022-11-06T03:45:36.763Z,94.87
2022-11-06T03:46:36.754Z,94.98
2022-11-06T03:47:36.790Z,94.87
2022-11-06T03:48:36.732Z,94.98
2022-11-06T03:49:36.759Z,94.98
2022-11-06T03:50:36.733Z,94.67
2022-11-06T03:51:36.704Z,94.67
2022-11-06T03:52:36.684Z,94.77
2022-11-06T03:53:36.676Z,94.67
2022-11-06T03:54:36.664Z,94.56
2022-11-06T03:55:36.678Z,94.56
2022-11-06T03:56:36.652Z,94.46
2022-11-06T03:57:36.645Z,94.46
2022-11-06T03:58:36.630Z,94.36
2022-11-06T03:59:36.604Z,94.36
2022-11-06T04:00:36.607Z,94.26
2022-11-06T04:01:36.752Z,94.26
2022-11-06T04:02:36.683Z,94.36
2022-11-06T04:03:36.561Z,94.26
2022-11-06T04:04:36.585Z,94.26
2022-11-06T04:05:36.570Z,94.15
2022-11-06T04:06:36.525Z,94.05
2022-11-06T04:07:36.525Z,94.15
2022-11-06T04:08:36.496Z,94.15
2022-11-06T04:09:36.496Z,94.26
2022-11-06T04:10:36.476Z,94.26
2022-11-06T04:11:36.497Z,94.15
2022-11-06T04:12:36.457Z,93.95
2022-11-06T04:13:36.486Z,94.15
2022-11-06T04:14:36.441Z,94.15
2022-11-06T04:15:36.436Z,94.36
2022-11-06T04:16:36.425Z,94.46
2022-11-06T04:17:36.419Z,94.36
2022-11-06T04:18:36.386Z,94.36
2022-11-06T04:19:36.385Z,94.46
2022-11-06T04:20:36.378Z,94.56
2022-11-06T04:21:36.385Z,94.56
2022-11-06T04:22:36.345Z,94.77
2022-11-06T04:23:37.727Z,94.67
2022-11-06T04:24:36.330Z,94.46
2022-11-06T04:25:36.336Z,94.46
2022-11-06T04:26:36.295Z,94.26
2022-11-06T04:27:36.316Z,94.36
2022-11-06T04:28:36.285Z,94.26
2022-11-06T04:29:36.278Z,94.36
2022-11-06T04:30:36.257Z,94.36
2022-11-06T04:31:36.266Z,94.26
2022-11-06T04:32:36.248Z,94.05
2022-11-06T04:33:36.242Z,94.15
2022-11-06T04:34:36.237Z,94.15
2022-11-06T04:35:36.208Z,94.15
2022-11-06T04:36:36.185Z,94.05
2022-11-06T04:37:36.230Z,94.15
2022-11-06T04:38:36.165Z,94.05
2022-11-06T04:39:36.167Z,94.15
2022-11-06T04:40:36.161Z,94.26
2022-11-06T04:41:36.125Z,94.26
2022-11-06T04:42:36.126Z,94.05
2022-11-06T04:43:36.143Z,94.15
2022-11-06T04:44:36.085Z,94.15
2022-11-06T04:45:36.087Z,94.26
2022-11-06T04:46:36.078Z,94.26
2022-11-06T04:47:36.066Z,94.46
2022-11-06T04:48:36.057Z,94.36
2022-11-06T04:49:36.078Z,94.46
2022-11-06T04:50:36.031Z,94.46
2022-11-06T04:51:36.022Z,94.56
2022-11-06T04:52:36.019Z,94.56
2022-11-06T04:53:36.022Z,94.56
2022-11-06T04:54:35.986Z,94.87
2022-11-06T04:55:35.979Z,94.77
2022-11-06T04:56:38.007Z,94.77
2022-11-06T04:57:36.966Z,94.98
2022-11-06T04:58:35.947Z,95.02
2022-11-06T04:59:35.940Z,95.12
2022-11-06T05:00:35.990Z,95.12
2022-11-06T05:01:36.111Z,95.12
2022-11-06T05:02:35.898Z,95.12
2022-11-06T05:03:35.878Z,95.12
2022-11-06T05:04:35.898Z,95.12
2022-11-06T05:05:35.906Z,95.12
2022-11-06T05:06:35.846Z,95.33
2022-11-06T05:07:35.851Z,95.23
2022-11-06T05:08:35.834Z,95.23
2022-11-06T05:09:35.841Z,95.33
2022-11-06T05:10:35.815Z,95.12
2022-11-06T05:11:35.812Z,95.12
2022-11-06T05:12:35.786Z,95.23
2022-11-06T05:13:35.787Z,95.23
2022-11-06T05:14:35.770Z,95.33
2022-11-06T05:15:35.747Z,95.33
2022-11-06T05:16:35.746Z,95.33
2022-11-06T05:17:36.788Z,95.43
2022-11-06T05:18:35.731Z,95.43
2022-11-06T05:19:35.707Z,95.43
2022-11-06T05:20:35.690Z,95.74
2022-11-06T05:21:35.741Z,95.64
2022-11-06T05:22:35.652Z,95.74
2022-11-06T05:23:35.661Z,95.84
2022-11-06T05:24:35.707Z,95.84
2022-11-06T05:25:35.641Z,95.84
2022-11-06T05:26:35.611Z,95.84
2022-11-06T05:27:35.631Z,95.84
2022-11-06T05:28:35.602Z,95.84
2022-11-06T05:29:35.601Z,95.84
2022-11-06T05:30:35.587Z,95.74
2022-11-06T05:31:35.610Z,95.74
2022-11-06T05:32:35.550Z,95.84
2022-11-06T05:33:35.541Z,95.84
2022-11-06T05:34:35.527Z,95.84
2022-11-06T05:35:35.532Z,95.84
2022-11-06T05:36:35.520Z,95.84
2022-11-06T05:37:35.619Z,95.95
2022-11-06T05:38:35.499Z,95.95
2022-11-06T05:39:40.452Z,95.95
2022-11-06T05:40:36.472Z,95.95
2022-11-06T05:41:35.447Z,96.15
2022-11-06T05:42:35.439Z,96.15
2022-11-06T05:43:35.459Z,96.05
2022-11-06T05:44:35.419Z,96.15
2022-11-06T05:45:35.432Z,96.25
2022-11-06T05:46:48.146Z,96.36
2022-11-06T05:47:36.399Z,96.25
2022-11-06T05:48:35.367Z,96.25
2022-11-06T05:49:35.389Z,96.25
2022-11-06T05:50:35.351Z,96.25
2022-11-06T05:51:35.359Z,96.46
2022-11-06T05:52:35.333Z,96.36
2022-11-06T05:53:35.326Z,96.25
2022-11-06T05:54:35.299Z,96.36
2022-11-06T05:55:35.320Z,96.15
2022-11-06T05:56:35.295Z,96.15
2022-11-06T05:57:35.300Z,96.15
2022-11-06T05:58:35.260Z,96.05
2022-11-06T05:59:35.279Z,96.15
2022-11-06T06:00:35.228Z,96.15
2022-11-06T06:01:35.517Z,96.25
2022-11-06T06:02:35.335Z,96.36
2022-11-06T06:03:35.220Z,96.25
2022-11-06T06:04:35.188Z,96.36
2022-11-06T06:05:35.179Z,96.25
2022-11-06T06:06:35.179Z,96.25
2022-11-06T06:07:35.167Z,96.25
2022-11-06T06:08:35.140Z,96.15
2022-11-06T06:09:35.141Z,96.15
2022-11-06T06:10:35.114Z,96.15
2022-11-06T06:11:35.140Z,96.05
2022-11-06T06:12:35.165Z,95.95
2022-11-06T06:13:35.100Z,95.84
2022-11-06T06:14:35.077Z,95.84
2022-11-06T06:15:35.111Z,95.84
2022-11-06T06:16:35.060Z,95.64
2022-11-06T06:17:35.040Z,95.64
2022-11-06T06:18:35.032Z,95.64
2022-11-06T06:19:35.035Z,95.53
2022-11-06T06:20:35.008Z,95.53
2022-11-06T06:21:35.031Z,95.53
2022-11-06T06:22:34.981Z,95.53
2022-11-06T06:23:34.991Z,95.64
2022-11-06T06:24:35.024Z,95.53
2022-11-06T06:25:34.980Z,95.64
2022-11-06T06:26:34.941Z,95.64
2022-11-06T06:27:34.952Z,95.64
2022-11-06T06:28:34.932Z,95.74
2022-11-06T06:29:34.919Z,95.74
2022-11-06T06:30:34.900Z,95.74
2022-11-06T06:31:34.919Z,95.74
2022-11-06T06:32:34.893Z,95.84
2022-11-06T06:33:34.886Z,95.84
2022-11-06T06:34:34.855Z,95.84
2022-11-06T06:35:34.859Z,95.84
2022-11-06T06:36:34.875Z,95.84
2022-11-06T06:37:34.860Z,95.84
2022-11-06T06:38:34.821Z,95.84
2022-11-06T06:39:34.806Z,95.84
2022-11-06T06:40:34.780Z,95.74
2022-11-06T06:41:34.807Z,95.74
2022-11-06T06:42:34.772Z,95.84
2022-11-06T06:43:34.756Z,95.95
2022-11-06T06:44:34.766Z,95.95
2022-11-06T06:45:34.758Z,96.05
2022-11-06T06:46:34.732Z,96.05
2022-11-06T06:47:34.712Z,95.95
2022-11-06T06:48:34.700Z,95.84
2022-11-06T06:49:34.732Z,95.95
2022-11-06T06:50:34.677Z,96.05
2022-11-06T06:51:34.713Z,96.15
2022-11-06T06:52:34.654Z,96.05
2022-11-06T06:53:34.641Z,95.95
2022-11-06T06:54:34.629Z,96.05
2022-11-06T06:55:34.634Z,96.05
2022-11-06T06:56:34.592Z,96.05
2022-11-06T06:57:34.620Z,96.15
2022-11-06T06:58:34.583Z,96.20
2022-11-06T06:59:34.600Z,96.20
2022-11-06T07:00:34.563Z,96.30
2022-11-06T07:01:34.679Z,96.30
2022-11-06T07:02:34.579Z,96.20
2022-11-06T07:03:34.532Z,96.30
2022-11-06T07:04:34.513Z,96.30
2022-11-06T07:05:34.513Z,96.30
2022-11-06T07:06:34.484Z,96.20
2022-11-06T07:07:34.504Z,96.30
2022-11-06T07:08:34.460Z,96.25
2022-11-06T07:09:34.465Z,96.25
2022-11-06T07:10:34.453Z,96.46
2022-11-06T07:11:34.441Z,96.46
2022-11-06T07:12:34.442Z,96.46
2022-11-06T07:13:36.362Z,96.46
2022-11-06T07:14:34.410Z,96.36
2022-11-06T07:15:34.400Z,96.25
2022-11-06T07:16:34.373Z,96.25
2022-11-06T07:17:34.404Z,96.36
2022-11-06T07:18:34.375Z,96.25
2022-11-06T07:19:34.354Z,96.15
2022-11-06T07:20:34.369Z,96.15
2022-11-06T07:21:34.329Z,96.15
2022-11-06T07:22:37.421Z,96.15
2022-11-06T07:23:34.314Z,96.15
2022-11-06T07:24:34.306Z,96.15
2022-11-06T07:25:34.532Z,95.95
2022-11-06T07:26:34.301Z,95.84
2022-11-06T07:27:34.249Z,95.95
2022-11-06T07:28:34.289Z,95.95
2022-11-06T07:29:34.262Z,95.84
2022-11-06T07:30:34.234Z,95.84
2022-11-06T07:31:34.213Z,95.84
2022-11-06T07:32:34.212Z,95.74
2022-11-06T07:33:34.192Z,95.74
2022-11-06T07:34:34.201Z,95.74
2022-11-06T07:35:34.162Z,95.70
2022-11-06T07:36:34.173Z,95.70
2022-11-06T07:37:34.142Z,95.59
2022-11-06T07:38:34.143Z,95.59
2022-11-06T07:39:34.145Z,95.39
2022-11-06T07:40:34.121Z,95.28
2022-11-06T07:41:34.103Z,95.18
2022-11-06T07:42:34.109Z,95.18
2022-11-06T07:43:34.094Z,95.28
2022-11-06T07:44:34.062Z,95.08
2022-11-06T07:45:34.053Z,94.98
2022-11-06T07:46:34.065Z,94.77
2022-11-06T07:47:34.030Z,94.77
2022-11-06T07:48:34.023Z,94.52
2022-11-06T07:49:34.034Z,94.62
2022-11-06T07:50:34.002Z,94.62
2022-11-06T07:51:34.000Z,94.52
2022-11-06T07:52:33.981Z,94.42
2022-11-06T07:53:33.967Z,94.31
2022-11-06T07:54:33.994Z,94.01
2022-11-06T07:55:39.215Z,94.01
2022-11-06T07:56:34.949Z,94.07
2022-11-06T07:57:33.913Z,93.76
2022-11-06T07:58:33.914Z,93.76
2022-11-06T07:59:33.941Z,93.76
2022-11-06T08:00:34.083Z,93.65
2022-11-06T08:01:34.547Z,93.44
2022-11-06T08:02:33.926Z,93.24
2022-11-06T08:03:33.853Z,93.44
2022-11-06T08:04:33.869Z,93.44
2022-11-06T08:05:33.842Z,93.24
2022-11-06T08:06:33.823Z,93.35
2022-11-06T08:07:33.814Z,92.93
2022-11-06T08:08:33.794Z,92.89
2022-11-06T08:09:33.823Z,92.99
2022-11-06T08:10:33.784Z,92.99
2022-11-06T08:11:33.762Z,92.89
2022-11-06T08:12:33.754Z,92.89
2022-11-06T08:13:33.744Z,92.79
2022-11-06T08:14:38.712Z,92.79
2022-11-06T08:15:34.714Z,92.89
2022-11-06T08:16:33.714Z,92.99
2022-11-06T08:17:33.694Z,92.89
2022-11-06T08:18:33.686Z,92.58
2022-11-06T08:19:33.670Z,92.69
2022-11-06T08:20:33.675Z,92.74
2022-11-06T08:21:33.695Z,92.33
2022-11-06T08:22:33.634Z,92.33
2022-11-06T08:23:33.613Z,92.13
2022-11-06T08:24:33.626Z,92.13
2022-11-06T08:25:33.614Z,91.93
2022-11-06T08:26:33.614Z,92.03
2022-11-06T08:27:33.573Z,92.03
2022-11-06T08:28:33.593Z,91.93
2022-11-06T08:29:37.077Z,92.03
2022-11-06T08:30:34.554Z,91.82
2022-11-06T08:31:33.534Z,92.08
2022-11-06T08:32:33.534Z,91.99
2022-11-06T08:33:33.506Z,91.47
2022-11-06T08:34:33.506Z,91.27
2022-11-06T08:35:33.484Z,91.27
2022-11-06T08:36:33.514Z,91.06
2022-11-06T08:37:33.455Z,90.91
2022-11-06T08:38:33.469Z,90.61
2022-11-06T08:39:33.446Z,90.30
2022-11-06T08:40:33.543Z,89.99
2022-11-06T08:41:33.446Z,89.99
2022-11-06T08:42:33.414Z,89.89
2022-11-06T08:43:33.414Z,90.09
2022-11-06T08:44:33.395Z,90.30
2022-11-06T08:45:33.375Z,90.40
2022-11-06T08:46:33.386Z,90.40
2022-11-06T08:47:33.355Z,90.40
2022-11-06T08:48:33.354Z,90.46
2022-11-06T08:49:33.326Z,90.56
2022-11-06T08:50:33.326Z,90.67
2022-11-06T08:51:33.314Z,90.56
2022-11-06T08:52:34.384Z,90.36
2022-11-06T08:53:33.301Z,90.36
2022-11-06T08:54:33.277Z,90.36
2022-11-06T08:55:33.278Z,89.95
2022-11-06T08:56:33.258Z,89.95
2022-11-06T08:57:33.266Z,90.26
2022-11-06T08:58:33.250Z,90.36
2022-11-06T08:59:33.215Z,90.36
2022-11-06T09:00:33.218Z,90.05
2022-11-06T09:01:33.282Z,90.42
2022-11-06T09:02:33.239Z,90.52
2022-11-06T09:03:33.361Z,91.30
2022-11-06T09:04:37.278Z,91.67
2022-11-06T09:05:34.146Z,88.90
2022-11-06T09:06:33.145Z,88.29
2022-11-06T09:07:33.139Z,89.17
2022-11-06T09:08:33.117Z,89.12
2022-11-06T09:09:33.098Z,88.68
2022-11-06T09:10:33.119Z,87.41
2022-11-06T09:11:33.082Z,85.47
2022-11-06T09:12:33.086Z,85.94
2022-11-06T09:13:33.067Z,84.41
2022-11-06T09:14:33.067Z,83.48
2022-11-06T09:15:33.038Z,84.50
2022-11-06T09:16:33.026Z,83.85
2022-11-06T09:17:33.014Z,83.14
2022-11-06T09:18:33.006Z,83.85
2022-11-06T09:19:33.022Z,81.98
2022-11-06T09:20:32.986Z,82.18
2022-11-06T09:21:32.978Z,81.37
2022-11-06T09:22:32.973Z,81.71
2022-11-06T09:23:32.967Z,81.46
2022-11-06T09:25:01.370Z,81.37
2022-11-06T09:25:33.918Z,81.16
2022-11-06T09:26:32.930Z,81.40
2022-11-06T09:27:32.898Z,81.91
2022-11-06T09:28:32.886Z,81.40
2022-11-06T09:29:32.906Z,81.67
2022-11-06T09:30:32.866Z,81.10
2022-11-06T09:31:32.858Z,81.20
2022-11-06T09:32:32.846Z,81.65
2022-11-06T09:33:32.851Z,82.46
2022-11-06T09:34:32.851Z,82.67
2022-11-06T09:35:32.810Z,82.26
2022-11-06T09:36:32.807Z,82.15
2022-11-06T09:37:32.787Z,82.67
2022-11-06T09:38:32.800Z,82.67
2022-11-06T09:39:32.771Z,82.36
2022-11-06T09:40:32.759Z,82.46
2022-11-06T09:41:32.754Z,83.28
2022-11-06T09:42:32.727Z,82.97
2022-11-06T09:44:02.895Z,83.28
2022-11-06T09:44:33.708Z,83.79
2022-11-06T09:45:32.708Z,82.97
2022-11-06T09:46:32.691Z,83.18
2022-11-06T09:47:32.667Z,83.04
2022-11-06T09:48:32.701Z,82.93
2022-11-06T09:49:32.651Z,82.87
2022-11-06T09:50:32.654Z,83.44
2022-11-06T09:51:32.618Z,83.44
2022-11-06T09:52:32.630Z,82.93
2022-11-06T09:53:32.607Z,82.63
2022-11-06T09:54:32.638Z,82.42
2022-11-06T09:55:32.596Z,82.01
2022-11-06T09:56:32.582Z,81.91
2022-11-06T09:57:32.551Z,82.01
2022-11-06T09:58:32.561Z,82.42
2022-11-06T09:59:32.539Z,82.22
2022-11-06T10:00:32.540Z,81.60
2022-11-06T10:01:32.637Z,81.91
2022-11-06T10:02:32.542Z,81.60
2022-11-06T10:03:32.491Z,81.51
2022-11-06T10:04:32.519Z,81.40
2022-11-06T10:05:32.500Z,81.40
2022-11-06T10:06:32.459Z,81.81
2022-11-06T10:07:32.443Z,81.60
2022-11-06T10:08:32.451Z,81.67
2022-11-06T10:09:32.579Z,81.87
2022-11-06T10:10:32.759Z,81.67
2022-11-06T10:11:32.398Z,82.08
2022-11-06T10:12:32.410Z,81.46
2022-11-06T10:13:32.372Z,81.16
2022-11-06T10:14:32.380Z,81.16
2022-11-06T10:15:32.359Z,81.37
2022-11-06T10:16:32.364Z,81.53
2022-11-06T10:17:32.346Z,81.73
2022-11-06T10:18:32.332Z,81.23
2022-11-06T10:19:32.343Z,81.23
2022-11-06T10:20:32.310Z,80.82
2022-11-06T10:21:32.284Z,80.61
2022-11-06T10:22:32.379Z,79.69
2022-11-06T10:23:32.270Z,80.00
2022-11-06T10:24:32.273Z,79.69
2022-11-06T10:25:32.258Z,79.55
2022-11-06T10:26:33.892Z,79.35
2022-11-06T10:27:32.249Z,79.59
2022-11-06T10:28:32.213Z,80.10
2022-11-06T10:29:32.201Z,79.59
2022-11-06T10:30:32.681Z,79.39
2022-11-06T10:31:32.209Z,79.90
2022-11-06T10:32:32.173Z,80.51
2022-11-06T10:33:32.149Z,80.88
2022-11-06T10:34:32.155Z,80.68
2022-11-06T10:35:32.134Z,80.16
2022-11-06T10:36:32.142Z,80.47
2022-11-06T10:37:32.103Z,79.55
2022-11-06T10:38:32.094Z,80.16
2022-11-06T10:39:32.086Z,80.27
2022-11-06T10:40:32.082Z,80.68
2022-11-06T10:41:32.074Z,80.57
2022-11-06T10:42:37.599Z,80.07
2022-11-06T10:43:33.043Z,80.68
2022-11-06T10:44:32.073Z,79.96
2022-11-06T10:45:32.022Z,80.16
2022-11-06T10:46:32.016Z,80.27
2022-11-06T10:47:31.982Z,80.57
2022-11-06T10:48:35.638Z,80.98
2022-11-06T10:49:32.962Z,81.09
2022-11-06T10:50:31.998Z,80.57
2022-11-06T10:51:32.014Z,80.37
2022-11-06T10:52:31.951Z,79.96
2022-11-06T10:53:31.938Z,79.66
2022-11-06T10:54:31.918Z,79.25
2022-11-06T10:55:31.901Z,79.45
2022-11-06T10:56:31.927Z,79.86
2022-11-06T10:57:31.904Z,79.66
2022-11-06T10:58:31.874Z,79.55
2022-11-06T10:59:31.848Z,79.66
2022-11-06T11:00:31.862Z,78.94
2022-11-06T11:01:32.080Z,79.35
2022-11-06T11:02:31.906Z,79.35
2022-11-06T11:03:31.814Z,79.35
2022-11-06T11:04:31.815Z,78.80
2022-11-06T11:05:31.811Z,79.11
2022-11-06T11:06:31.796Z,79.62
2022-11-06T11:07:31.789Z,79.62
2022-11-06T11:08:31.787Z,79.52
2022-11-06T11:09:31.746Z,79.32
2022-11-06T11:10:31.746Z,79.00
2022-11-06T11:11:31.714Z,78.80
2022-11-06T11:12:31.729Z,78.80
2022-11-06T11:13:31.947Z,79.52
2022-11-06T11:14:31.707Z,79.32
2022-11-06T11:15:31.674Z,78.50
2022-11-06T11:16:31.678Z,78.70
2022-11-06T11:17:31.674Z,78.70
2022-11-06T11:18:31.682Z,78.19
2022-11-06T11:19:31.618Z,77.89
2022-11-06T11:20:31.628Z,78.50
2022-11-06T11:21:31.607Z,78.70
2022-11-06T11:22:33.278Z,79.00
2022-11-06T11:23:31.667Z,78.80
2022-11-06T11:24:31.588Z,78.91
2022-11-06T11:25:31.559Z,78.80
2022-11-06T11:26:31.563Z,78.87
2022-11-06T11:27:31.556Z,77.95
2022-11-06T11:28:31.548Z,77.85
2022-11-06T11:29:31.516Z,77.55
2022-11-06T11:30:31.507Z,77.75
2022-11-06T11:31:31.492Z,77.75
2022-11-06T11:32:31.503Z,77.14
2022-11-06T11:33:31.495Z,77.30
2022-11-06T11:34:31.474Z,77.40
2022-11-06T11:35:31.457Z,77.81
2022-11-06T11:36:31.480Z,77.71
2022-11-06T11:37:31.431Z,77.10
2022-11-06T11:38:31.438Z,75.84
2022-11-06T11:39:31.418Z,76.04
2022-11-06T11:40:31.402Z,76.15
2022-11-06T11:41:31.409Z,76.15
2022-11-06T11:42:31.386Z,76.25
2022-11-06T11:43:31.389Z,76.15
2022-11-06T11:44:31.370Z,75.95
2022-11-06T11:45:31.350Z,75.54
2022-11-06T11:46:31.321Z,75.74
2022-11-06T11:47:31.337Z,75.64
2022-11-06T11:48:31.306Z,76.25
2022-11-06T11:49:31.318Z,76.28
2022-11-06T11:50:31.297Z,76.69
2022-11-06T11:51:31.282Z,76.90
2022-11-06T11:52:31.259Z,76.96
2022-11-06T11:53:31.260Z,77.06
2022-11-06T11:54:31.638Z,76.45
2022-11-06T11:55:31.231Z,76.04
2022-11-06T11:56:58.207Z,76.15
2022-11-06T11:57:32.214Z,76.08
2022-11-06T11:58:31.202Z,76.18
2022-11-06T11:59:31.190Z,76.18
2022-11-06T12:00:31.182Z,76.28
2022-11-06T12:01:31.213Z,76.59
2022-11-06T12:02:31.246Z,75.78
2022-11-06T12:03:31.150Z,76.04
2022-11-06T12:04:31.122Z,75.84
2022-11-06T12:05:31.130Z,75.02
2022-11-06T12:06:31.102Z,75.30
2022-11-06T12:07:31.202Z,74.99
2022-11-06T12:08:31.090Z,73.87
2022-11-06T12:09:31.082Z,74.04
2022-11-06T12:10:31.050Z,73.02
2022-11-06T12:11:31.070Z,73.74
2022-11-06T12:12:31.030Z,73.39
2022-11-06T12:13:31.044Z,73.09
2022-11-06T12:14:31.031Z,72.48
2022-11-06T12:15:31.012Z,71.87
2022-11-06T12:16:30.990Z,71.77
2022-11-06T12:17:31.036Z,72.48
2022-11-06T12:18:30.982Z,72.48
2022-11-06T12:19:31.086Z,73.50
2022-11-06T12:20:30.955Z,73.39
2022-11-06T12:21:30.946Z,73.39
2022-11-06T12:22:30.931Z,73.54
2022-11-06T12:23:30.937Z,73.63
2022-11-06T12:24:30.894Z,73.84
2022-11-06T12:25:30.903Z,73.84
2022-11-06T12:26:30.874Z,73.77
2022-11-06T12:27:30.894Z,73.97
2022-11-06T12:28:30.855Z,74.28
2022-11-06T12:29:30.856Z,73.87
2022-11-06T12:30:30.862Z,74.28
2022-11-06T12:31:30.825Z,74.18
2022-11-06T12:32:30.822Z,73.60
2022-11-06T12:33:59.995Z,73.71
2022-11-06T12:34:31.803Z,73.80
2022-11-06T12:35:30.781Z,74.52
2022-11-06T12:36:30.762Z,74.11
2022-11-06T12:37:30.774Z,74.52
2022-11-06T12:38:30.742Z,75.02
2022-11-06T12:39:31.283Z,74.82
2022-11-06T12:40:30.710Z,75.13
2022-11-06T12:41:30.704Z,75.95
2022-11-06T12:42:30.724Z,75.88
2022-11-06T12:43:30.683Z,76.08
2022-11-06T12:44:30.686Z,75.74
2022-11-06T12:45:30.666Z,75.88
2022-11-06T12:46:30.654Z,75.67
2022-11-06T12:47:30.634Z,75.88
2022-11-06T12:48:30.627Z,75.67
2022-11-06T12:49:30.627Z,75.67
2022-11-06T12:50:30.594Z,76.08
2022-11-06T12:51:30.594Z,76.18
2022-11-06T12:52:30.597Z,75.98